WXM80 ListenWXM80 Stop

You find our weather info also at:

UK Metoffice

WeatherCloud

Weather Underground

Northeastern Weather Network

AWEKAS

Citizen Weather Observer Program (CWOP)

HAMweather, WeatherForYou, PWS Weather


Weather Underground History page Text

Daily Summary for January 16, 2017 Units:  Both    English   Metric
« Previous Day
Next Day »
Daily Weekly Monthly Yearly Custom
  High: Low: Average:
Temperature: 41.4 °F /  5.2 °C 26.8 °F /  -2.9 °C 33.7 °F /  0.9 °C
Dew Point: 31.2 °F /  -0.4 °C 21.5 °F /  -5.8 °C 25.9 °F /  -3.4 °C
Humidity: 87 % 55 % 73 %
Wind Speed: 5.5 mph /  8.9 km/h - 1.5 mph /  2.4 km/h
Wind Gust: 10.4 mph /  16.7 km/h - -
Wind:- - South
Pressure: 30.45 in /  1031 hPa 30.25 in /  1024.3 hPa -
Precipitation: 0.00 in /  0 mm    
Historical Graphs
 
 
Tabular Data for January 16, 2017
Time Temperature Dew Point Pressure Wind Wind Speed Wind Gust Humidity Rainfall Rate (Hourly)
00:02 27.3 °F /  -2.6 °C 23.9 °F /  -4.5 °C 30.39 in /  1029 hPa Calm   1.2 mph /  1.9 km/h 87 % 0.00 in /  0 mm
00:07 27.3 °F /  -2.6 °C 23.9 °F /  -4.5 °C 30.39 in /  1029 hPa Calm     87 % 0.00 in /  0 mm
00:12 27.3 °F /  -2.6 °C 23.9 °F /  -4.5 °C 30.39 in /  1029 hPa North 0.1 mph /  0.2 km/h   87 % 0.00 in /  0 mm
00:17 27.4 °F /  -2.6 °C 24.0 °F /  -4.4 °C 30.39 in /  1029 hPa Calm   1.2 mph /  1.9 km/h 87 % 0.00 in /  0 mm
00:22 27.4 °F /  -2.6 °C 23.8 °F /  -4.6 °C 30.39 in /  1029 hPa Calm   1.2 mph /  1.9 km/h 86 % 0.00 in /  0 mm
00:27 27.4 °F /  -2.6 °C 23.8 °F /  -4.6 °C 30.39 in /  1029 hPa Calm     86 % 0.00 in /  0 mm
00:32 27.4 °F /  -2.6 °C 23.8 °F /  -4.6 °C 30.39 in /  1029 hPa Calm   1.0 mph /  1.6 km/h 86 % 0.00 in /  0 mm
00:37 27.4 °F /  -2.6 °C 23.8 °F /  -4.6 °C 30.40 in /  1029.3 hPa Calm     86 % 0.00 in /  0 mm
00:42 27.3 °F /  -2.6 °C 23.4 °F /  -4.8 °C 30.40 in /  1029.3 hPa Calm   1.2 mph /  1.9 km/h 85 % 0.00 in /  0 mm
00:47 27.3 °F /  -2.6 °C 23.4 °F /  -4.8 °C 30.39 in /  1029 hPa ENE 1.2 mph /  1.9 km/h 2.3 mph /  3.7 km/h 85 % 0.00 in /  0 mm
00:52 27.3 °F /  -2.6 °C 23.4 °F /  -4.8 °C 30.40 in /  1029.3 hPa SE 0.6 mph /  1 km/h 2.3 mph /  3.7 km/h 85 % 0.00 in /  0 mm
00:58 27.3 °F /  -2.6 °C 23.4 °F /  -4.8 °C 30.40 in /  1029.3 hPa Calm     85 % 0.00 in /  0 mm
01:03 27.3 °F /  -2.6 °C 23.1 °F /  -4.9 °C 30.40 in /  1029.3 hPa NE 0.1 mph /  0.2 km/h 1.2 mph /  1.9 km/h 84 % 0.00 in /  0 mm
01:08 27.4 °F /  -2.6 °C 23.2 °F /  -4.9 °C 30.40 in /  1029.3 hPa ENE 1.6 mph /  2.6 km/h 3.5 mph /  5.6 km/h 84 % 0.00 in /  0 mm
01:13 27.4 °F /  -2.6 °C 23.2 °F /  -4.9 °C 30.40 in /  1029.3 hPa ENE 5.5 mph /  8.9 km/h 10.4 mph /  16.7 km/h 84 % 0.00 in /  0 mm
01:18 28.4 °F /  -2 °C 23.3 °F /  -4.8 °C 30.40 in /  1029.3 hPa ENE 2.2 mph /  3.5 km/h 3.5 mph /  5.6 km/h 81 % 0.00 in /  0 mm
01:23 29.2 °F /  -1.6 °C 23.5 °F /  -4.7 °C 30.40 in /  1029.3 hPa ENE 3.1 mph /  5 km/h 6.9 mph /  11.1 km/h 79 % 0.00 in /  0 mm
01:28 29.6 °F /  -1.3 °C 23.6 °F /  -4.7 °C 30.41 in /  1029.7 hPa NNE 2.1 mph /  3.4 km/h 6.9 mph /  11.1 km/h 78 % 0.00 in /  0 mm
01:33 30.1 °F /  -1.1 °C 23.8 °F /  -4.6 °C 30.41 in /  1029.7 hPa ENE 3.1 mph /  5 km/h 4.6 mph /  7.4 km/h 77 % 0.00 in /  0 mm
01:38 30.4 °F /  -0.9 °C 23.7 °F /  -4.6 °C 30.41 in /  1029.7 hPa ENE 5.2 mph /  8.4 km/h 8.1 mph /  13 km/h 76 % 0.00 in /  0 mm
01:43 30.9 °F /  -0.6 °C 23.6 °F /  -4.7 °C 30.41 in /  1029.7 hPa NE 4.2 mph /  6.8 km/h 8.0 mph /  12.9 km/h 74 % 0.00 in /  0 mm
01:48 31.3 °F /  -0.4 °C 23.3 °F /  -4.8 °C 30.41 in /  1029.7 hPa ENE 3.4 mph /  5.5 km/h 6.9 mph /  11.1 km/h 72 % 0.00 in /  0 mm
01:53 31.4 °F /  -0.3 °C 23.4 °F /  -4.8 °C 30.42 in /  1030 hPa ENE 3.8 mph /  6.1 km/h 6.9 mph /  11.1 km/h 72 % 0.00 in /  0 mm
01:58 31.6 °F /  -0.2 °C 23.3 °F /  -4.8 °C 30.42 in /  1030 hPa ENE 3.4 mph /  5.5 km/h 4.6 mph /  7.4 km/h 71 % 0.00 in /  0 mm
02:03 31.6 °F /  -0.2 °C 23.6 °F /  -4.7 °C 30.42 in /  1030 hPa East 3.0 mph /  4.8 km/h 7.0 mph /  11.3 km/h 72 % 0.00 in /  0 mm
02:08 31.6 °F /  -0.2 °C 23.3 °F /  -4.8 °C 30.42 in /  1030 hPa NNE 1.9 mph /  3.1 km/h 4.0 mph /  6.4 km/h 71 % 0.00 in /  0 mm
02:13 31.6 °F /  -0.2 °C 23.3 °F /  -4.8 °C 30.42 in /  1030 hPa NE 2.7 mph /  4.3 km/h 6.0 mph /  9.7 km/h 71 % 0.00 in /  0 mm
02:19 31.6 °F /  -0.2 °C 22.9 °F /  -5.1 °C 30.42 in /  1030 hPa ENE 5.0 mph /  8 km/h 9.2 mph /  14.8 km/h 70 % 0.00 in /  0 mm
02:24 31.6 °F /  -0.2 °C 22.9 °F /  -5.1 °C 30.42 in /  1030 hPa NE 3.6 mph /  5.8 km/h 8.1 mph /  13 km/h 70 % 0.00 in /  0 mm
02:29 31.6 °F /  -0.2 °C 22.9 °F /  -5.1 °C 30.43 in /  1030.4 hPa ENE 3.8 mph /  6.1 km/h 8.1 mph /  13 km/h 70 % 0.00 in /  0 mm
02:34 31.5 °F /  -0.3 °C 22.8 °F /  -5.1 °C 30.43 in /  1030.4 hPa ENE 3.0 mph /  4.8 km/h 8.0 mph /  12.9 km/h 70 % 0.00 in /  0 mm
02:39 31.5 °F /  -0.3 °C 23.2 °F /  -4.9 °C 30.43 in /  1030.4 hPa NE 2.0 mph /  3.2 km/h 5.0 mph /  8 km/h 71 % 0.00 in /  0 mm
02:44 31.4 °F /  -0.3 °C 23.1 °F /  -4.9 °C 30.43 in /  1030.4 hPa NNE 2.0 mph /  3.2 km/h 7.0 mph /  11.3 km/h 71 % 0.00 in /  0 mm
02:49 31.2 °F /  -0.4 °C 22.6 °F /  -5.2 °C 30.43 in /  1030.4 hPa NNE 3.0 mph /  4.8 km/h 8.0 mph /  12.9 km/h 70 % 0.00 in /  0 mm
02:54 31.1 °F /  -0.5 °C 22.5 °F /  -5.3 °C 30.42 in /  1030 hPa NNE 2.0 mph /  3.2 km/h 7.0 mph /  11.3 km/h 70 % 0.00 in /  0 mm
02:59 31.0 °F /  -0.6 °C 22.4 °F /  -5.3 °C 30.42 in /  1030 hPa NNE 3.0 mph /  4.8 km/h 8.1 mph /  13 km/h 70 % 0.00 in /  0 mm
03:04 31.0 °F /  -0.6 °C 22.4 °F /  -5.3 °C 30.42 in /  1030 hPa ENE 3.7 mph /  6 km/h 9.2 mph /  14.8 km/h 70 % 0.00 in /  0 mm
03:09 31.0 °F /  -0.6 °C 22.4 °F /  -5.3 °C 30.42 in /  1030 hPa NE 3.3 mph /  5.3 km/h 5.8 mph /  9.3 km/h 70 % 0.00 in /  0 mm
03:14 30.9 °F /  -0.6 °C 22.6 °F /  -5.2 °C 30.42 in /  1030 hPa NE 1.4 mph /  2.3 km/h 3.5 mph /  5.6 km/h 71 % 0.00 in /  0 mm
03:19 30.8 °F /  -0.7 °C 22.5 °F /  -5.3 °C 30.42 in /  1030 hPa NE 3.1 mph /  5 km/h 4.6 mph /  7.4 km/h 71 % 0.00 in /  0 mm
03:24 30.6 °F /  -0.8 °C 22.6 °F /  -5.2 °C 30.42 in /  1030 hPa ENE 1.1 mph /  1.8 km/h 3.5 mph /  5.6 km/h 72 % 0.00 in /  0 mm
03:29 30.5 °F /  -0.8 °C 22.2 °F /  -5.4 °C 30.42 in /  1030 hPa ENE 1.6 mph /  2.6 km/h 3.5 mph /  5.6 km/h 71 % 0.00 in /  0 mm
03:34 30.5 °F /  -0.8 °C 22.5 °F /  -5.3 °C 30.42 in /  1030 hPa ENE 1.5 mph /  2.4 km/h 3.5 mph /  5.6 km/h 72 % 0.00 in /  0 mm
03:40 30.4 °F /  -0.9 °C 22.8 °F /  -5.1 °C 30.42 in /  1030 hPa NE 0.9 mph /  1.4 km/h 2.0 mph /  3.2 km/h 73 % 0.00 in /  0 mm
03:45 30.3 °F /  -0.9 °C 22.4 °F /  -5.3 °C 30.42 in /  1030 hPa East 1.5 mph /  2.4 km/h 4.6 mph /  7.4 km/h 72 % 0.00 in /  0 mm
03:50 30.2 °F /  -1 °C 22.6 °F /  -5.2 °C 30.42 in /  1030 hPa ENE 1.1 mph /  1.8 km/h 3.5 mph /  5.6 km/h 73 % 0.00 in /  0 mm
03:55 30.1 °F /  -1.1 °C 22.5 °F /  -5.3 °C 30.42 in /  1030 hPa NNE 2.4 mph /  3.9 km/h 4.0 mph /  6.4 km/h 73 % 0.00 in /  0 mm
04:00 30.0 °F /  -1.1 °C 22.4 °F /  -5.3 °C 30.42 in /  1030 hPa NNE 0.2 mph /  0.3 km/h 3.5 mph /  5.6 km/h 73 % 0.00 in /  0 mm
04:05 29.9 °F /  -1.2 °C 22.3 °F /  -5.4 °C 30.42 in /  1030 hPa ENE 0.9 mph /  1.4 km/h 2.3 mph /  3.7 km/h 73 % 0.00 in /  0 mm
04:10 29.8 °F /  -1.2 °C 22.5 °F /  -5.3 °C 30.42 in /  1030 hPa ENE 1.7 mph /  2.7 km/h 3.5 mph /  5.6 km/h 74 % 0.00 in /  0 mm
04:15 29.7 °F /  -1.3 °C 22.4 °F /  -5.3 °C 30.42 in /  1030 hPa ENE 1.2 mph /  1.9 km/h 3.5 mph /  5.6 km/h 74 % 0.00 in /  0 mm
04:20 29.7 °F /  -1.3 °C 22.4 °F /  -5.3 °C 30.42 in /  1030 hPa ENE 0.3 mph /  0.5 km/h 2.3 mph /  3.7 km/h 74 % 0.00 in /  0 mm
04:25 29.6 °F /  -1.3 °C 22.3 °F /  -5.4 °C 30.42 in /  1030 hPa Calm   1.2 mph /  1.9 km/h 74 % 0.00 in /  0 mm
04:30 29.5 °F /  -1.4 °C 22.6 °F /  -5.2 °C 30.42 in /  1030 hPa ENE 1.3 mph /  2.1 km/h 2.3 mph /  3.7 km/h 75 % 0.00 in /  0 mm
04:35 29.4 °F /  -1.4 °C 22.5 °F /  -5.3 °C 30.42 in /  1030 hPa ENE 0.8 mph /  1.3 km/h 2.3 mph /  3.7 km/h 75 % 0.00 in /  0 mm
04:38 29.3 °F /  -1.5 °C 22.4 °F /  -5.3 °C 30.41 in /  1029.7 hPa ENE 1.1 mph /  1.8 km/h   75 % 0.00 in /  0 mm
04:43 29.1 °F /  -1.6 °C 22.2 °F /  -5.4 °C 30.41 in /  1029.7 hPa ENE 1.8 mph /  2.9 km/h 3.5 mph /  5.6 km/h 75 % 0.00 in /  0 mm
04:48 29.0 °F /  -1.7 °C 22.1 °F /  -5.5 °C 30.41 in /  1029.7 hPa ENE 0.5 mph /  0.8 km/h 2.3 mph /  3.7 km/h 75 % 0.00 in /  0 mm
04:53 28.8 °F /  -1.8 °C 21.9 °F /  -5.6 °C 30.41 in /  1029.7 hPa ENE 1.5 mph /  2.4 km/h 1.5 mph /  2.4 km/h 75 % 0.00 in /  0 mm
04:58 28.7 °F /  -1.8 °C 21.8 °F /  -5.7 °C 30.41 in /  1029.7 hPa NE 1.8 mph /  2.9 km/h 4.0 mph /  6.4 km/h 75 % 0.00 in /  0 mm
05:03 28.6 °F /  -1.9 °C 21.7 °F /  -5.7 °C 30.41 in /  1029.7 hPa NE 1.3 mph /  2.1 km/h 3.5 mph /  5.6 km/h 75 % 0.00 in /  0 mm
05:08 28.5 °F /  -1.9 °C 21.9 °F /  -5.6 °C 30.42 in /  1030 hPa NE 1.1 mph /  1.8 km/h 3.5 mph /  5.6 km/h 76 % 0.00 in /  0 mm
05:13 28.5 °F /  -1.9 °C 21.9 °F /  -5.6 °C 30.41 in /  1029.7 hPa NE 0.7 mph /  1.1 km/h 2.3 mph /  3.7 km/h 76 % 0.00 in /  0 mm
05:18 28.4 °F /  -2 °C 21.8 °F /  -5.7 °C 30.41 in /  1029.7 hPa NE 1.7 mph /  2.7 km/h 3.5 mph /  5.6 km/h 76 % 0.00 in /  0 mm
05:23 28.3 °F /  -2.1 °C 21.7 °F /  -5.7 °C 30.41 in /  1029.7 hPa NNE 0.9 mph /  1.4 km/h 3.5 mph /  5.6 km/h 76 % 0.00 in /  0 mm
05:28 28.3 °F /  -2.1 °C 21.7 °F /  -5.7 °C 30.41 in /  1029.7 hPa NNE 0.2 mph /  0.3 km/h 2.3 mph /  3.7 km/h 76 % 0.00 in /  0 mm
05:33 28.2 °F /  -2.1 °C 21.9 °F /  -5.6 °C 30.41 in /  1029.7 hPa NNE 0.7 mph /  1.1 km/h 2.3 mph /  3.7 km/h 77 % 0.00 in /  0 mm
05:38 28.2 °F /  -2.1 °C 21.9 °F /  -5.6 °C 30.41 in /  1029.7 hPa NNE 0.2 mph /  0.3 km/h 1.2 mph /  1.9 km/h 77 % 0.00 in /  0 mm
05:43 28.1 °F /  -2.2 °C 21.8 °F /  -5.7 °C 30.41 in /  1029.7 hPa NNE 0.1 mph /  0.2 km/h 1.2 mph /  1.9 km/h 77 % 0.00 in /  0 mm
05:48 28.1 °F /  -2.2 °C 21.8 °F /  -5.7 °C 30.41 in /  1029.7 hPa NNE 0.2 mph /  0.3 km/h 2.3 mph /  3.7 km/h 77 % 0.00 in /  0 mm
05:53 28.0 °F /  -2.2 °C 21.7 °F /  -5.7 °C 30.42 in /  1030 hPa Calm     77 % 0.00 in /  0 mm
05:58 27.9 °F /  -2.3 °C 21.6 °F /  -5.8 °C 30.42 in /  1030 hPa Calm     77 % 0.00 in /  0 mm
06:03 27.9 °F /  -2.3 °C 21.9 °F /  -5.6 °C 30.42 in /  1030 hPa NNE 0.6 mph /  1 km/h 2.3 mph /  3.7 km/h 78 % 0.00 in /  0 mm
06:08 27.8 °F /  -2.3 °C 21.8 °F /  -5.7 °C 30.42 in /  1030 hPa NNW 1.6 mph /  2.6 km/h 3.5 mph /  5.6 km/h 78 % 0.00 in /  0 mm
06:14 27.8 °F /  -2.3 °C 21.8 °F /  -5.7 °C 30.42 in /  1030 hPa NNW 0.4 mph /  0.6 km/h 3.5 mph /  5.6 km/h 78 % 0.00 in /  0 mm
06:19 27.7 °F /  -2.4 °C 22.0 °F /  -5.6 °C 30.42 in /  1030 hPa North 2.7 mph /  4.3 km/h 6.9 mph /  11.1 km/h 79 % 0.00 in /  0 mm
06:24 27.8 °F /  -2.3 °C 22.1 °F /  -5.5 °C 30.42 in /  1030 hPa NNE 2.7 mph /  4.3 km/h 4.0 mph /  6.4 km/h 79 % 0.00 in /  0 mm
06:29 27.8 °F /  -2.3 °C 22.1 °F /  -5.5 °C 30.42 in /  1030 hPa NNE 3.0 mph /  4.8 km/h 3.5 mph /  5.6 km/h 79 % 0.00 in /  0 mm
06:34 27.9 °F /  -2.3 °C 22.5 °F /  -5.3 °C 30.42 in /  1030 hPa North 2.6 mph /  4.2 km/h 3.5 mph /  5.6 km/h 80 % 0.00 in /  0 mm
06:39 27.9 °F /  -2.3 °C 22.5 °F /  -5.3 °C 30.42 in /  1030 hPa North 1.0 mph /  1.6 km/h 3.0 mph /  4.8 km/h 80 % 0.00 in /  0 mm
06:44 27.9 °F /  -2.3 °C 22.2 °F /  -5.4 °C 30.42 in /  1030 hPa North 2.0 mph /  3.2 km/h 5.0 mph /  8 km/h 79 % 0.00 in /  0 mm
06:49 27.9 °F /  -2.3 °C 22.2 °F /  -5.4 °C 30.42 in /  1030 hPa North 1.0 mph /  1.6 km/h 4.0 mph /  6.4 km/h 79 % 0.00 in /  0 mm
06:54 27.9 °F /  -2.3 °C 22.2 °F /  -5.4 °C 30.43 in /  1030.4 hPa Calm   2.0 mph /  3.2 km/h 79 % 0.00 in /  0 mm
06:59 27.9 °F /  -2.3 °C 21.9 °F /  -5.6 °C 30.42 in /  1030 hPa North 0.6 mph /  1 km/h 2.0 mph /  3.2 km/h 78 % 0.00 in /  0 mm
07:04 27.9 °F /  -2.3 °C 21.9 °F /  -5.6 °C 30.43 in /  1030.4 hPa Calm   3.0 mph /  4.8 km/h 78 % 0.00 in /  0 mm
07:09 27.8 °F /  -2.3 °C 21.9 °F /  -5.6 °C 30.43 in /  1030.4 hPa Calm   2.0 mph /  3.2 km/h 78 % 0.00 in /  0 mm
07:14 27.8 °F /  -2.3 °C 21.8 °F /  -5.7 °C 30.43 in /  1030.4 hPa Calm   1.0 mph /  1.6 km/h 78 % 0.00 in /  0 mm
07:19 27.7 °F /  -2.4 °C 21.7 °F /  -5.7 °C 30.43 in /  1030.4 hPa Calm   2.0 mph /  3.2 km/h 78 % 0.00 in /  0 mm
07:24 27.6 °F /  -2.4 °C 21.6 °F /  -5.8 °C 30.43 in /  1030.4 hPa North 1.0 mph /  1.6 km/h 3.0 mph /  4.8 km/h 78 % 0.00 in /  0 mm
07:29 27.5 °F /  -2.5 °C 21.5 °F /  -5.8 °C 30.42 in /  1030 hPa Calm     78 % 0.00 in /  0 mm
07:34 27.4 °F /  -2.6 °C 21.7 °F /  -5.7 °C 30.42 in /  1030 hPa Calm     79 % 0.00 in /  0 mm
07:39 27.2 °F /  -2.7 °C 21.5 °F /  -5.8 °C 30.43 in /  1030.4 hPa Calm     79 % 0.00 in /  0 mm
07:44 27.1 °F /  -2.7 °C 21.7 °F /  -5.7 °C 30.43 in /  1030.4 hPa Calm   1.0 mph /  1.6 km/h 80 % 0.00 in /  0 mm
07:49 26.9 °F /  -2.8 °C 21.6 °F /  -5.8 °C 30.43 in /  1030.4 hPa Calm     80 % 0.00 in /  0 mm
07:54 26.9 °F /  -2.8 °C 21.8 °F /  -5.7 °C 30.43 in /  1030.4 hPa Calm     81 % 0.00 in /  0 mm
07:59 26.8 °F /  -2.9 °C 21.8 °F /  -5.7 °C 30.43 in /  1030.4 hPa Calm     81 % 0.00 in /  0 mm
08:04 26.8 °F /  -2.9 °C 21.8 °F /  -5.7 °C 30.43 in /  1030.4 hPa Calm     81 % 0.00 in /  0 mm
08:09 26.8 °F /  -2.9 °C 22.0 °F /  -5.6 °C 30.43 in /  1030.4 hPa Calm     82 % 0.00 in /  0 mm
08:14 26.8 °F /  -2.9 °C 22.0 °F /  -5.6 °C 30.43 in /  1030.4 hPa Calm     82 % 0.00 in /  0 mm
08:19 26.9 °F /  -2.8 °C 22.4 °F /  -5.3 °C 30.43 in /  1030.4 hPa Calm     83 % 0.00 in /  0 mm
08:24 27.1 °F /  -2.7 °C 22.6 °F /  -5.2 °C 30.43 in /  1030.4 hPa Calm     83 % 0.00 in /  0 mm
08:29 27.3 °F /  -2.6 °C 23.1 °F /  -4.9 °C 30.44 in /  1030.7 hPa Calm     84 % 0.00 in /  0 mm
08:34 27.5 °F /  -2.5 °C 23.3 °F /  -4.8 °C 30.44 in /  1030.7 hPa Calm     84 % 0.00 in /  0 mm
08:39 27.8 °F /  -2.3 °C 23.6 °F /  -4.7 °C 30.44 in /  1030.7 hPa Calm   1.2 mph /  1.9 km/h 84 % 0.00 in /  0 mm
08:44 28.2 °F /  -2.1 °C 24.0 °F /  -4.4 °C 30.44 in /  1030.7 hPa North 0.2 mph /  0.3 km/h 1.2 mph /  1.9 km/h 84 % 0.00 in /  0 mm
08:45 28.3 °F /  -2.1 °C 24.1 °F /  -4.4 °C 30.44 in /  1030.7 hPa NW 1.3 mph /  2.1 km/h 3.5 mph /  5.6 km/h 84 % 0.00 in /  0 mm
08:50 28.7 °F /  -1.8 °C 24.2 °F /  -4.3 °C 30.43 in /  1030.4 hPa Calm     83 % 0.00 in /  0 mm
08:55 29.3 °F /  -1.5 °C 24.2 °F /  -4.3 °C 30.44 in /  1030.7 hPa NW 1.9 mph /  3.1 km/h 3.5 mph /  5.6 km/h 81 % 0.00 in /  0 mm
09:00 29.9 °F /  -1.2 °C 23.9 °F /  -4.5 °C 30.44 in /  1030.7 hPa NW 1.5 mph /  2.4 km/h 3.5 mph /  5.6 km/h 78 % 0.00 in /  0 mm
09:05 30.5 °F /  -0.8 °C 23.8 °F /  -4.6 °C 30.44 in /  1030.7 hPa North 2.0 mph /  3.2 km/h 3.5 mph /  5.6 km/h 76 % 0.00 in /  0 mm
09:10 30.7 °F /  -0.7 °C 24.0 °F /  -4.4 °C 30.44 in /  1030.7 hPa NNW 0.8 mph /  1.3 km/h 3.5 mph /  5.6 km/h 76 % 0.00 in /  0 mm
09:16 31.1 °F /  -0.5 °C 24.1 °F /  -4.4 °C 30.44 in /  1030.7 hPa North 1.2 mph /  1.9 km/h 3.5 mph /  5.6 km/h 75 % 0.00 in /  0 mm
09:21 31.5 °F /  -0.3 °C 24.2 °F /  -4.3 °C 30.44 in /  1030.7 hPa WNW 3.7 mph /  6 km/h 5.0 mph /  8 km/h 74 % 0.00 in /  0 mm
09:26 31.9 °F /  -0.1 °C 24.2 °F /  -4.3 °C 30.44 in /  1030.7 hPa WNW 2.4 mph /  3.9 km/h 3.5 mph /  5.6 km/h 73 % 0.00 in /  0 mm
09:31 32.3 °F /  0.2 °C 24.6 °F /  -4.1 °C 30.44 in /  1030.7 hPa NW 2.0 mph /  3.2 km/h 3.5 mph /  5.6 km/h 73 % 0.00 in /  0 mm
09:36 32.8 °F /  0.4 °C 24.4 °F /  -4.2 °C 30.44 in /  1030.7 hPa NW 0.1 mph /  0.2 km/h 3.5 mph /  5.6 km/h 71 % 0.00 in /  0 mm
09:41 33.2 °F /  0.7 °C 24.5 °F /  -4.2 °C 30.44 in /  1030.7 hPa WNW 0.9 mph /  1.4 km/h 3.5 mph /  5.6 km/h 70 % 0.00 in /  0 mm
09:46 33.4 °F /  0.8 °C 25.0 °F /  -3.9 °C 30.45 in /  1031 hPa NW 1.3 mph /  2.1 km/h 3.5 mph /  5.6 km/h 71 % 0.00 in /  0 mm
09:51 33.8 °F /  1 °C 24.7 °F /  -4.1 °C 30.45 in /  1031 hPa NW 1.2 mph /  1.9 km/h 2.3 mph /  3.7 km/h 69 % 0.00 in /  0 mm
09:56 34.1 °F /  1.2 °C 25.0 °F /  -3.9 °C 30.45 in /  1031 hPa WNW 0.6 mph /  1 km/h 2.3 mph /  3.7 km/h 69 % 0.00 in /  0 mm
10:01 34.3 °F /  1.3 °C 24.8 °F /  -4 °C 30.44 in /  1030.7 hPa WNW 2.3 mph /  3.7 km/h 3.5 mph /  5.6 km/h 68 % 0.00 in /  0 mm
10:06 34.6 °F /  1.4 °C 25.1 °F /  -3.8 °C 30.45 in /  1031 hPa WNW 2.2 mph /  3.5 km/h 3.5 mph /  5.6 km/h 68 % 0.00 in /  0 mm
10:11 34.8 °F /  1.6 °C 25.0 °F /  -3.9 °C 30.45 in /  1031 hPa Calm   2.3 mph /  3.7 km/h 67 % 0.00 in /  0 mm
10:16 35.0 °F /  1.7 °C 25.1 °F /  -3.8 °C 30.44 in /  1030.7 hPa WNW 1.3 mph /  2.1 km/h 3.5 mph /  5.6 km/h 67 % 0.00 in /  0 mm
10:22 35.2 °F /  1.8 °C 25.0 °F /  -3.9 °C 30.44 in /  1030.7 hPa NW 1.9 mph /  3.1 km/h 4.6 mph /  7.4 km/h 66 % 0.00 in /  0 mm
10:27 35.4 °F /  1.9 °C 25.2 °F /  -3.8 °C 30.44 in /  1030.7 hPa SSW 4.2 mph /  6.8 km/h 5.8 mph /  9.3 km/h 66 % 0.00 in /  0 mm
10:32 35.6 °F /  2 °C 25.4 °F /  -3.7 °C 30.44 in /  1030.7 hPa WSW 2.0 mph /  3.2 km/h 3.5 mph /  5.6 km/h 66 % 0.00 in /  0 mm
10:37 35.8 °F /  2.1 °C 24.8 °F /  -4 °C 30.44 in /  1030.7 hPa WSW 2.4 mph /  3.9 km/h 3.5 mph /  5.6 km/h 64 % 0.00 in /  0 mm
10:42 35.9 °F /  2.2 °C 24.9 °F /  -3.9 °C 30.44 in /  1030.7 hPa West 1.2 mph /  1.9 km/h 2.3 mph /  3.7 km/h 64 % 0.00 in /  0 mm
10:47 36.0 °F /  2.2 °C 25.0 °F /  -3.9 °C 30.43 in /  1030.4 hPa WSW 1.7 mph /  2.7 km/h 5.0 mph /  8 km/h 64 % 0.00 in /  0 mm
10:52 35.9 °F /  2.2 °C 24.1 °F /  -4.4 °C 30.43 in /  1030.4 hPa West 0.8 mph /  1.3 km/h 4.6 mph /  7.4 km/h 62 % 0.00 in /  0 mm
10:57 36.0 °F /  2.2 °C 24.6 °F /  -4.1 °C 30.43 in /  1030.4 hPa WNW 2.7 mph /  4.3 km/h 3.5 mph /  5.6 km/h 63 % 0.00 in /  0 mm
11:08 36.1 °F /  2.3 °C 24.7 °F /  -4.1 °C 30.43 in /  1030.4 hPa West 1.6 mph /  2.6 km/h 6.0 mph /  9.7 km/h 63 % 0.00 in /  0 mm
11:19 36.1 °F /  2.3 °C 24.7 °F /  -4.1 °C 30.42 in /  1030 hPa West 1.0 mph /  1.6 km/h 6.0 mph /  9.7 km/h 63 % 0.00 in /  0 mm
11:53 36.4 °F /  2.4 °C 25.0 °F /  -3.9 °C 30.40 in /  1029.3 hPa West 2.8 mph /  4.5 km/h 3.5 mph /  5.6 km/h 63 % 0.00 in /  0 mm
11:55 36.4 °F /  2.4 °C 25.0 °F /  -3.9 °C 30.40 in /  1029.3 hPa West 1.5 mph /  2.4 km/h 4.6 mph /  7.4 km/h 63 % 0.00 in /  0 mm
12:00 36.5 °F /  2.5 °C 25.1 °F /  -3.8 °C 30.40 in /  1029.3 hPa WSW 1.5 mph /  2.4 km/h 3.5 mph /  5.6 km/h 63 % 0.00 in /  0 mm
12:10 36.8 °F /  2.7 °C 25.0 °F /  -3.9 °C 30.39 in /  1029 hPa WNW 0.9 mph /  1.4 km/h 3.5 mph /  5.6 km/h 62 % 0.00 in /  0 mm
12:17 37.1 °F /  2.8 °C 26.4 °F /  -3.1 °C 30.38 in /  1028.7 hPa North 3.3 mph /  5.3 km/h 5.0 mph /  8 km/h 65 % 0.00 in /  0 mm
12:25 37.5 °F /  3.1 °C 27.2 °F /  -2.7 °C 30.38 in /  1028.7 hPa NW 0.6 mph /  1 km/h 3.5 mph /  5.6 km/h 66 % 0.00 in /  0 mm
12:32 37.8 °F /  3.2 °C 27.1 °F /  -2.7 °C 30.37 in /  1028.3 hPa WNW 2.6 mph /  4.2 km/h 4.0 mph /  6.4 km/h 65 % 0.00 in /  0 mm
12:56 39.4 °F /  4.1 °C 26.2 °F /  -3.2 °C 30.37 in /  1028.3 hPa SW 5.1 mph /  8.2 km/h 9.2 mph /  14.8 km/h 59 % 0.00 in /  0 mm
13:01 39.5 °F /  4.2 °C 25.9 °F /  -3.4 °C 30.37 in /  1028.3 hPa West 4.0 mph /  6.4 km/h 6.9 mph /  11.1 km/h 58 % 0.00 in /  0 mm
13:21 39.8 °F /  4.3 °C 26.6 °F /  -3 °C 30.35 in /  1027.7 hPa WSW 2.0 mph /  3.2 km/h 6.9 mph /  11.1 km/h 59 % 0.00 in /  0 mm
13:26 39.9 °F /  4.4 °C 26.3 °F /  -3.2 °C 30.35 in /  1027.7 hPa West 1.4 mph /  2.3 km/h 3.5 mph /  5.6 km/h 58 % 0.00 in /  0 mm
13:28 39.9 °F /  4.4 °C 26.3 °F /  -3.2 °C 30.35 in /  1027.7 hPa West 2.8 mph /  4.5 km/h 4.0 mph /  6.4 km/h 58 % 0.00 in /  0 mm
13:34 40.0 °F /  4.4 °C 26.4 °F /  -3.1 °C 30.35 in /  1027.7 hPa WNW 2.6 mph /  4.2 km/h 5.8 mph /  9.3 km/h 58 % 0.00 in /  0 mm
13:44 40.3 °F /  4.6 °C 26.3 °F /  -3.2 °C 30.34 in /  1027.3 hPa West 5.0 mph /  8 km/h 6.0 mph /  9.7 km/h 57 % 0.00 in /  0 mm
13:47 40.4 °F /  4.7 °C 26.4 °F /  -3.1 °C 30.34 in /  1027.3 hPa West 3.6 mph /  5.8 km/h 5.0 mph /  8 km/h 57 % 0.00 in /  0 mm
13:57 40.9 °F /  4.9 °C 26.8 °F /  -2.9 °C 30.33 in /  1027 hPa West 4.4 mph /  7.1 km/h 6.0 mph /  9.7 km/h 57 % 0.00 in /  0 mm
14:04 41.1 °F /  5.1 °C 26.6 °F /  -3 °C 30.33 in /  1027 hPa WNW 1.7 mph /  2.7 km/h 3.5 mph /  5.6 km/h 56 % 0.00 in /  0 mm
14:09 41.2 °F /  5.1 °C 26.7 °F /  -2.9 °C 30.33 in /  1027 hPa West 2.0 mph /  3.2 km/h 4.6 mph /  7.4 km/h 56 % 0.00 in /  0 mm
14:18 41.3 °F /  5.2 °C 26.8 °F /  -2.9 °C 30.33 in /  1027 hPa WNW 0.8 mph /  1.3 km/h 2.3 mph /  3.7 km/h 56 % 0.00 in /  0 mm
14:28 41.4 °F /  5.2 °C 26.4 °F /  -3.1 °C 30.33 in /  1027 hPa WNW 0.7 mph /  1.1 km/h 2.3 mph /  3.7 km/h 55 % 0.00 in /  0 mm
15:05 41.1 °F /  5.1 °C 29.8 °F /  -1.2 °C 30.32 in /  1026.6 hPa Calm   1.2 mph /  1.9 km/h 64 % 0.00 in /  0 mm
15:09 41.1 °F /  5.1 °C 29.8 °F /  -1.2 °C 30.32 in /  1026.6 hPa Calm   1.2 mph /  1.9 km/h 64 % 0.00 in /  0 mm
15:14 41.1 °F /  5.1 °C 30.2 °F /  -1 °C 30.32 in /  1026.6 hPa NNE 1.5 mph /  2.4 km/h 3.5 mph /  5.6 km/h 65 % 0.00 in /  0 mm
15:21 41.0 °F /  5 °C 29.4 °F /  -1.4 °C 30.32 in /  1026.6 hPa North 0.4 mph /  0.6 km/h 2.3 mph /  3.7 km/h 63 % 0.00 in /  0 mm
15:29 41.0 °F /  5 °C 29.4 °F /  -1.4 °C 30.32 in /  1026.6 hPa Calm   1.2 mph /  1.9 km/h 63 % 0.00 in /  0 mm
15:42 40.9 °F /  4.9 °C 29.3 °F /  -1.5 °C 30.32 in /  1026.6 hPa Calm     63 % 0.00 in /  0 mm
15:51 40.8 °F /  4.9 °C 29.2 °F /  -1.6 °C 30.32 in /  1026.6 hPa Calm     63 % 0.00 in /  0 mm
15:56 40.7 °F /  4.8 °C 29.1 °F /  -1.6 °C 30.32 in /  1026.6 hPa Calm     63 % 0.00 in /  0 mm
16:06 40.6 °F /  4.8 °C 28.6 °F /  -1.9 °C 30.32 in /  1026.6 hPa Calm     62 % 0.00 in /  0 mm
16:29 40.1 °F /  4.5 °C 28.9 °F /  -1.7 °C 30.32 in /  1026.6 hPa North 0.8 mph /  1.3 km/h 1.2 mph /  1.9 km/h 64 % 0.00 in /  0 mm
16:30 40.0 °F /  4.4 °C 28.8 °F /  -1.8 °C 30.32 in /  1026.6 hPa North 0.8 mph /  1.3 km/h 2.3 mph /  3.7 km/h 64 % 0.00 in /  0 mm
16:35 39.7 °F /  4.3 °C 28.5 °F /  -1.9 °C 30.32 in /  1026.6 hPa South 3.3 mph /  5.3 km/h 4.6 mph /  7.4 km/h 64 % 0.00 in /  0 mm
16:38 39.5 °F /  4.2 °C 28.7 °F /  -1.8 °C 30.31 in /  1026.3 hPa SSW 3.1 mph /  5 km/h 5.0 mph /  8 km/h 65 % 0.00 in /  0 mm
16:39 39.5 °F /  4.2 °C 28.7 °F /  -1.8 °C 30.31 in /  1026.3 hPa SSW 3.2 mph /  5.1 km/h 5.8 mph /  9.3 km/h 65 % 0.00 in /  0 mm
16:41 39.5 °F /  4.2 °C 28.7 °F /  -1.8 °C 30.32 in /  1026.6 hPa South 2.9 mph /  4.7 km/h 4.6 mph /  7.4 km/h 65 % 0.00 in /  0 mm
16:46 39.2 °F /  4 °C 28.4 °F /  -2 °C 30.32 in /  1026.6 hPa SSW 1.5 mph /  2.4 km/h 3.5 mph /  5.6 km/h 65 % 0.00 in /  0 mm
16:51 39.0 °F /  3.9 °C 28.2 °F /  -2.1 °C 30.32 in /  1026.6 hPa South 1.3 mph /  2.1 km/h 3.5 mph /  5.6 km/h 65 % 0.00 in /  0 mm
16:56 38.8 °F /  3.8 °C 28.4 °F /  -2 °C 30.31 in /  1026.3 hPa SSW 0.1 mph /  0.2 km/h 3.5 mph /  5.6 km/h 66 % 0.00 in /  0 mm
17:01 38.7 °F /  3.7 °C 28.3 °F /  -2.1 °C 30.31 in /  1026.3 hPa SW 3.1 mph /  5 km/h 4.0 mph /  6.4 km/h 66 % 0.00 in /  0 mm
17:06 38.5 °F /  3.6 °C 28.1 °F /  -2.2 °C 30.31 in /  1026.3 hPa SW 1.8 mph /  2.9 km/h 3.5 mph /  5.6 km/h 66 % 0.00 in /  0 mm
17:11 38.4 °F /  3.6 °C 28.0 °F /  -2.2 °C 30.32 in /  1026.6 hPa SW 2.2 mph /  3.5 km/h 3.5 mph /  5.6 km/h 66 % 0.00 in /  0 mm
17:16 38.2 °F /  3.4 °C 27.8 °F /  -2.3 °C 30.32 in /  1026.6 hPa SW 1.8 mph /  2.9 km/h 3.5 mph /  5.6 km/h 66 % 0.00 in /  0 mm
17:21 38.0 °F /  3.3 °C 28.0 °F /  -2.2 °C 30.32 in /  1026.6 hPa SW 0.5 mph /  0.8 km/h 2.3 mph /  3.7 km/h 67 % 0.00 in /  0 mm
17:26 37.9 °F /  3.3 °C 27.9 °F /  -2.3 °C 30.31 in /  1026.3 hPa SW 0.8 mph /  1.3 km/h 2.3 mph /  3.7 km/h 67 % 0.00 in /  0 mm
17:31 37.7 °F /  3.2 °C 27.7 °F /  -2.4 °C 30.31 in /  1026.3 hPa Calm   1.2 mph /  1.9 km/h 67 % 0.00 in /  0 mm
17:36 37.5 °F /  3.1 °C 27.5 °F /  -2.5 °C 30.32 in /  1026.6 hPa Calm   1.2 mph /  1.9 km/h 67 % 0.00 in /  0 mm
17:41 37.2 °F /  2.9 °C 27.2 °F /  -2.7 °C 30.31 in /  1026.3 hPa SW 0.7 mph /  1.1 km/h 2.3 mph /  3.7 km/h 67 % 0.00 in /  0 mm
17:46 37.0 °F /  2.8 °C 27.1 °F /  -2.7 °C 30.31 in /  1026.3 hPa SW 0.7 mph /  1.1 km/h 2.0 mph /  3.2 km/h 67 % 0.00 in /  0 mm
17:51 36.8 °F /  2.7 °C 27.2 °F /  -2.7 °C 30.31 in /  1026.3 hPa SW 0.6 mph /  1 km/h 2.3 mph /  3.7 km/h 68 % 0.00 in /  0 mm
17:56 36.6 °F /  2.6 °C 27.4 °F /  -2.6 °C 30.31 in /  1026.3 hPa SW 0.6 mph /  1 km/h 1.2 mph /  1.9 km/h 69 % 0.00 in /  0 mm
18:02 36.3 °F /  2.4 °C 27.1 °F /  -2.7 °C 30.32 in /  1026.6 hPa SW 0.2 mph /  0.3 km/h 1.2 mph /  1.9 km/h 69 % 0.00 in /  0 mm
18:07 36.1 °F /  2.3 °C 27.3 °F /  -2.6 °C 30.32 in /  1026.6 hPa SW 0.1 mph /  0.2 km/h 1.2 mph /  1.9 km/h 70 % 0.00 in /  0 mm
18:12 35.9 °F /  2.2 °C 27.4 °F /  -2.6 °C 30.32 in /  1026.6 hPa SW 0.3 mph /  0.5 km/h 1.2 mph /  1.9 km/h 71 % 0.00 in /  0 mm
18:17 35.8 °F /  2.1 °C 27.3 °F /  -2.6 °C 30.31 in /  1026.3 hPa SW 0.3 mph /  0.5 km/h 1.2 mph /  1.9 km/h 71 % 0.00 in /  0 mm
18:22 35.6 °F /  2 °C 27.8 °F /  -2.3 °C 30.31 in /  1026.3 hPa South 0.1 mph /  0.2 km/h 2.3 mph /  3.7 km/h 73 % 0.00 in /  0 mm
18:27 35.5 °F /  1.9 °C 27.7 °F /  -2.4 °C 30.31 in /  1026.3 hPa South 0.1 mph /  0.2 km/h 2.3 mph /  3.7 km/h 73 % 0.00 in /  0 mm
18:32 35.3 °F /  1.8 °C 27.8 °F /  -2.3 °C 30.31 in /  1026.3 hPa South 1.1 mph /  1.8 km/h 3.5 mph /  5.6 km/h 74 % 0.00 in /  0 mm
18:37 35.2 °F /  1.8 °C 28.1 °F /  -2.2 °C 30.31 in /  1026.3 hPa SSW 2.7 mph /  4.3 km/h 4.6 mph /  7.4 km/h 75 % 0.00 in /  0 mm
18:42 35.1 °F /  1.7 °C 28.6 °F /  -1.9 °C 30.31 in /  1026.3 hPa South 3.3 mph /  5.3 km/h 5.8 mph /  9.3 km/h 77 % 0.00 in /  0 mm
18:47 35.1 °F /  1.7 °C 28.9 °F /  -1.7 °C 30.31 in /  1026.3 hPa SW 1.5 mph /  2.4 km/h 3.5 mph /  5.6 km/h 78 % 0.00 in /  0 mm
18:52 35.1 °F /  1.7 °C 28.9 °F /  -1.7 °C 30.31 in /  1026.3 hPa SW 1.0 mph /  1.6 km/h 3.5 mph /  5.6 km/h 78 % 0.00 in /  0 mm
18:57 35.2 °F /  1.8 °C 29.3 °F /  -1.5 °C 30.31 in /  1026.3 hPa SSW 1.8 mph /  2.9 km/h 3.5 mph /  5.6 km/h 79 % 0.00 in /  0 mm
19:03 35.2 °F /  1.8 °C 29.3 °F /  -1.5 °C 30.31 in /  1026.3 hPa South 1.7 mph /  2.7 km/h 2.3 mph /  3.7 km/h 79 % 0.00 in /  0 mm
19:08 35.4 °F /  1.9 °C 29.8 °F /  -1.2 °C 30.31 in /  1026.3 hPa SW 2.5 mph /  4 km/h 6.9 mph /  11.1 km/h 80 % 0.00 in /  0 mm
19:13 35.6 °F /  2 °C 30.0 °F /  -1.1 °C 30.30 in /  1026 hPa SSW 4.7 mph /  7.6 km/h 6.9 mph /  11.1 km/h 80 % 0.00 in /  0 mm
19:18 35.8 °F /  2.1 °C 30.2 °F /  -1 °C 30.30 in /  1026 hPa SSW 2.5 mph /  4 km/h 3.5 mph /  5.6 km/h 80 % 0.00 in /  0 mm
19:23 36.0 °F /  2.2 °C 30.4 °F /  -0.9 °C 30.30 in /  1026 hPa WSW 4.3 mph /  6.9 km/h 5.0 mph /  8 km/h 80 % 0.00 in /  0 mm
19:28 36.2 °F /  2.3 °C 30.6 °F /  -0.8 °C 30.30 in /  1026 hPa SW 4.1 mph /  6.6 km/h 6.9 mph /  11.1 km/h 80 % 0.00 in /  0 mm
19:33 36.4 °F /  2.4 °C 30.8 °F /  -0.7 °C 30.30 in /  1026 hPa WSW 1.7 mph /  2.7 km/h 4.0 mph /  6.4 km/h 80 % 0.00 in /  0 mm
19:38 36.6 °F /  2.6 °C 31.0 °F /  -0.6 °C 30.30 in /  1026 hPa SSW 3.0 mph /  4.8 km/h 3.5 mph /  5.6 km/h 80 % 0.00 in /  0 mm
19:43 36.8 °F /  2.7 °C 30.9 °F /  -0.6 °C 30.30 in /  1026 hPa SW 3.5 mph /  5.6 km/h 5.0 mph /  8 km/h 79 % 0.00 in /  0 mm
19:48 36.9 °F /  2.7 °C 31.0 °F /  -0.6 °C 30.30 in /  1026 hPa SW 1.8 mph /  2.9 km/h 4.6 mph /  7.4 km/h 79 % 0.00 in /  0 mm
19:53 37.0 °F /  2.8 °C 31.1 °F /  -0.5 °C 30.30 in /  1026 hPa SSW 3.1 mph /  5 km/h 4.6 mph /  7.4 km/h 79 % 0.00 in /  0 mm
19:58 37.0 °F /  2.8 °C 31.1 °F /  -0.5 °C 30.31 in /  1026.3 hPa SSW 3.1 mph /  5 km/h 4.6 mph /  7.4 km/h 79 % 0.00 in /  0 mm
20:03 37.1 °F /  2.8 °C 31.2 °F /  -0.4 °C 30.30 in /  1026 hPa SW 2.6 mph /  4.2 km/h 4.6 mph /  7.4 km/h 79 % 0.00 in /  0 mm
20:08 37.1 °F /  2.8 °C 30.9 °F /  -0.6 °C 30.31 in /  1026.3 hPa SW 1.7 mph /  2.7 km/h 2.3 mph /  3.7 km/h 78 % 0.00 in /  0 mm
20:13 37.1 °F /  2.8 °C 30.9 °F /  -0.6 °C 30.30 in /  1026 hPa SW 2.1 mph /  3.4 km/h 3.5 mph /  5.6 km/h 78 % 0.00 in /  0 mm
20:14 37.0 °F /  2.8 °C 30.8 °F /  -0.7 °C 30.31 in /  1026.3 hPa SW 2.0 mph /  3.2 km/h 3.5 mph /  5.6 km/h 78 % 0.00 in /  0 mm
20:19 37.0 °F /  2.8 °C 30.8 °F /  -0.7 °C 30.31 in /  1026.3 hPa SW 1.8 mph /  2.9 km/h 4.0 mph /  6.4 km/h 78 % 0.00 in /  0 mm
20:24 37.0 °F /  2.8 °C 30.8 °F /  -0.7 °C 30.31 in /  1026.3 hPa SW 0.5 mph /  0.8 km/h 3.5 mph /  5.6 km/h 78 % 0.00 in /  0 mm
20:30 37.0 °F /  2.8 °C 30.8 °F /  -0.7 °C 30.30 in /  1026 hPa SW 2.2 mph /  3.5 km/h 3.5 mph /  5.6 km/h 78 % 0.00 in /  0 mm
20:35 37.0 °F /  2.8 °C 30.8 °F /  -0.7 °C 30.30 in /  1026 hPa SW 1.3 mph /  2.1 km/h 3.5 mph /  5.6 km/h 78 % 0.00 in /  0 mm
20:40 37.0 °F /  2.8 °C 30.8 °F /  -0.7 °C 30.31 in /  1026.3 hPa SSW 0.4 mph /  0.6 km/h 2.3 mph /  3.7 km/h 78 % 0.00 in /  0 mm
20:45 37.1 °F /  2.8 °C 30.9 °F /  -0.6 °C 30.30 in /  1026 hPa SW 0.3 mph /  0.5 km/h 1.0 mph /  1.6 km/h 78 % 0.00 in /  0 mm
20:50 37.1 °F /  2.8 °C 30.9 °F /  -0.6 °C 30.30 in /  1026 hPa SW 2.3 mph /  3.7 km/h 2.3 mph /  3.7 km/h 78 % 0.00 in /  0 mm
20:55 37.2 °F /  2.9 °C 31.0 °F /  -0.6 °C 30.30 in /  1026 hPa SW 0.5 mph /  0.8 km/h 3.5 mph /  5.6 km/h 78 % 0.00 in /  0 mm
21:00 37.3 °F /  2.9 °C 30.7 °F /  -0.7 °C 30.30 in /  1026 hPa SW 0.8 mph /  1.3 km/h 5.8 mph /  9.3 km/h 77 % 0.00 in /  0 mm
21:05 37.4 °F /  3 °C 30.8 °F /  -0.7 °C 30.30 in /  1026 hPa SSW 2.7 mph /  4.3 km/h 3.5 mph /  5.6 km/h 77 % 0.00 in /  0 mm
21:10 37.5 °F /  3.1 °C 30.9 °F /  -0.6 °C 30.30 in /  1026 hPa SW 2.3 mph /  3.7 km/h 4.0 mph /  6.4 km/h 77 % 0.00 in /  0 mm
21:15 37.6 °F /  3.1 °C 30.7 °F /  -0.7 °C 30.30 in /  1026 hPa WSW 2.9 mph /  4.7 km/h 3.5 mph /  5.6 km/h 76 % 0.00 in /  0 mm
21:20 37.7 °F /  3.2 °C 31.1 °F /  -0.5 °C 30.29 in /  1025.6 hPa SSW 1.5 mph /  2.4 km/h 3.5 mph /  5.6 km/h 77 % 0.00 in /  0 mm
21:25 37.7 °F /  3.2 °C 30.8 °F /  -0.7 °C 30.29 in /  1025.6 hPa SSW 3.3 mph /  5.3 km/h 5.0 mph /  8 km/h 76 % 0.00 in /  0 mm
21:30 37.8 °F /  3.2 °C 30.9 °F /  -0.6 °C 30.29 in /  1025.6 hPa SW 2.1 mph /  3.4 km/h 3.5 mph /  5.6 km/h 76 % 0.00 in /  0 mm
21:35 37.9 °F /  3.3 °C 31.0 °F /  -0.6 °C 30.29 in /  1025.6 hPa SW 3.3 mph /  5.3 km/h 4.6 mph /  7.4 km/h 76 % 0.00 in /  0 mm
21:40 37.9 °F /  3.3 °C 30.7 °F /  -0.7 °C 30.29 in /  1025.6 hPa SW 1.8 mph /  2.9 km/h 3.5 mph /  5.6 km/h 75 % 0.00 in /  0 mm
21:45 38.0 °F /  3.3 °C 30.8 °F /  -0.7 °C 30.29 in /  1025.6 hPa SW 1.0 mph /  1.6 km/h 2.3 mph /  3.7 km/h 75 % 0.00 in /  0 mm
21:50 38.1 °F /  3.4 °C 30.5 °F /  -0.8 °C 30.28 in /  1025.3 hPa SW 2.1 mph /  3.4 km/h 3.5 mph /  5.6 km/h 74 % 0.00 in /  0 mm
21:55 38.1 °F /  3.4 °C 30.5 °F /  -0.8 °C 30.28 in /  1025.3 hPa SW 0.4 mph /  0.6 km/h 2.0 mph /  3.2 km/h 74 % 0.00 in /  0 mm
22:00 38.1 °F /  3.4 °C 30.5 °F /  -0.8 °C 30.28 in /  1025.3 hPa WSW 3.4 mph /  5.5 km/h 4.0 mph /  6.4 km/h 74 % 0.00 in /  0 mm
22:05 38.2 °F /  3.4 °C 30.3 °F /  -0.9 °C 30.28 in /  1025.3 hPa SW 0.3 mph /  0.5 km/h 3.5 mph /  5.6 km/h 73 % 0.00 in /  0 mm
22:11 38.2 °F /  3.4 °C 30.3 °F /  -0.9 °C 30.28 in /  1025.3 hPa SSW 1.6 mph /  2.6 km/h 2.3 mph /  3.7 km/h 73 % 0.00 in /  0 mm
22:16 38.2 °F /  3.4 °C 30.3 °F /  -0.9 °C 30.28 in /  1025.3 hPa SSW 2.9 mph /  4.7 km/h 5.0 mph /  8 km/h 73 % 0.00 in /  0 mm
22:21 38.3 °F /  3.5 °C 30.4 °F /  -0.9 °C 30.28 in /  1025.3 hPa SW 2.3 mph /  3.7 km/h 3.5 mph /  5.6 km/h 73 % 0.00 in /  0 mm
22:26 38.3 °F /  3.5 °C 30.4 °F /  -0.9 °C 30.28 in /  1025.3 hPa SW 0.6 mph /  1 km/h 2.3 mph /  3.7 km/h 73 % 0.00 in /  0 mm
22:31 38.3 °F /  3.5 °C 30.4 °F /  -0.9 °C 30.28 in /  1025.3 hPa SW 1.8 mph /  2.9 km/h 4.6 mph /  7.4 km/h 73 % 0.00 in /  0 mm
22:36 38.3 °F /  3.5 °C 30.1 °F /  -1.1 °C 30.27 in /  1024.9 hPa SW 2.1 mph /  3.4 km/h 3.5 mph /  5.6 km/h 72 % 0.00 in /  0 mm
22:41 38.3 °F /  3.5 °C 30.4 °F /  -0.9 °C 30.27 in /  1024.9 hPa SW 0.7 mph /  1.1 km/h 2.3 mph /  3.7 km/h 73 % 0.00 in /  0 mm
22:46 38.4 °F /  3.6 °C 30.2 °F /  -1 °C 30.27 in /  1024.9 hPa SW 0.9 mph /  1.4 km/h 2.3 mph /  3.7 km/h 72 % 0.00 in /  0 mm
22:51 38.4 °F /  3.6 °C 30.2 °F /  -1 °C 30.27 in /  1024.9 hPa SW 1.2 mph /  1.9 km/h 3.0 mph /  4.8 km/h 72 % 0.00 in /  0 mm
22:56 38.4 °F /  3.6 °C 30.2 °F /  -1 °C 30.27 in /  1024.9 hPa SW 0.3 mph /  0.5 km/h 2.3 mph /  3.7 km/h 72 % 0.00 in /  0 mm
23:01 38.4 °F /  3.6 °C 30.2 °F /  -1 °C 30.26 in /  1024.6 hPa SW 0.8 mph /  1.3 km/h 3.5 mph /  5.6 km/h 72 % 0.00 in /  0 mm
23:06 38.4 °F /  3.6 °C 30.2 °F /  -1 °C 30.26 in /  1024.6 hPa SW 0.8 mph /  1.3 km/h 2.3 mph /  3.7 km/h 72 % 0.00 in /  0 mm
23:11 38.4 °F /  3.6 °C 30.2 °F /  -1 °C 30.26 in /  1024.6 hPa SW 2.2 mph /  3.5 km/h 3.5 mph /  5.6 km/h 72 % 0.00 in /  0 mm
23:16 38.4 °F /  3.6 °C 30.2 °F /  -1 °C 30.26 in /  1024.6 hPa SW 2.5 mph /  4 km/h 4.0 mph /  6.4 km/h 72 % 0.00 in /  0 mm
23:21 38.4 °F /  3.6 °C 30.2 °F /  -1 °C 30.26 in /  1024.6 hPa SW 2.1 mph /  3.4 km/h 4.6 mph /  7.4 km/h 72 % 0.00 in /  0 mm
23:26 38.4 °F /  3.6 °C 30.2 °F /  -1 °C 30.25 in /  1024.3 hPa SSW 0.1 mph /  0.2 km/h 1.2 mph /  1.9 km/h 72 % 0.00 in /  0 mm
23:31 38.4 °F /  3.6 °C 29.8 °F /  -1.2 °C 30.25 in /  1024.3 hPa SW 0.8 mph /  1.3 km/h 2.3 mph /  3.7 km/h 71 % 0.00 in /  0 mm
23:36 38.4 °F /  3.6 °C 29.8 °F /  -1.2 °C 30.26 in /  1024.6 hPa SSW 2.1 mph /  3.4 km/h 4.6 mph /  7.4 km/h 71 % 0.00 in /  0 mm
23:41 38.4 °F /  3.6 °C 29.8 °F /  -1.2 °C 30.25 in /  1024.3 hPa SW 1.8 mph /  2.9 km/h 3.5 mph /  5.6 km/h 71 % 0.00 in /  0 mm
23:46 38.5 °F /  3.6 °C 29.9 °F /  -1.2 °C 30.25 in /  1024.3 hPa SW 2.5 mph /  4 km/h 3.5 mph /  5.6 km/h 71 % 0.00 in /  0 mm
23:52 38.6 °F /  3.7 °C 30.0 °F /  -1.1 °C 30.25 in /  1024.3 hPa SW 1.8 mph /  2.9 km/h 3.5 mph /  5.6 km/h 71 % 0.00 in /  0 mm
23:57 38.6 °F /  3.7 °C 30.0 °F /  -1.1 °C 30.25 in /  1024.3 hPa WSW 0.8 mph /  1.3 km/h 4.6 mph /  7.4 km/h 71 % 0.00 in /  0 mm
Crab Meadow Weather
Compliments of Weather Underground - 2.75 mb

Script developed by  Jim McMurry - jmcmurry@mwt.net Adapted for the template by  Wim van der Kuil - Leuven-Template.eu

Heat Index: The heat index combines air temperature and dew point in an attempt to determine the human-perceived equivalent temperature - how hot it feels. The human body normally cools itself by sweating, which evaporates and carries heat away from the body. However, when the relative humidity is high the evaporation rate is reduced, so heat is removed from the body at a lower rate causing it to retain more heat than it would in dry air.